createdAt,value
2022-11-29T00:00:21.046Z,16.87
2022-11-29T00:03:04.542Z,18.40
2022-11-29T00:05:37.454Z,17.50
2022-11-29T00:08:11.766Z,17.83
2022-11-29T00:10:42.326Z,17.93
2022-11-29T00:13:17.810Z,17.47
2022-11-29T00:15:52.786Z,17.87
2022-11-29T00:18:26.677Z,16.70
2022-11-29T00:20:59.505Z,16.80
2022-11-29T00:23:33.979Z,17.30
2022-11-29T00:28:58.825Z,16.73
2022-11-29T00:31:32.291Z,17.20
2022-11-29T00:34:07.345Z,16.57
2022-11-29T00:36:41.917Z,17.37
2022-11-29T00:39:12.862Z,17.73
2022-11-29T00:41:43.814Z,17.93
2022-11-29T00:44:20.447Z,16.87
2022-11-29T00:46:54.017Z,17.30
2022-11-29T00:49:41.774Z,17.73
2022-11-29T00:52:11.051Z,18.57
2022-11-29T00:54:40.427Z,16.77
2022-11-29T00:57:09.161Z,16.43
2022-11-29T00:59:39.045Z,16.80
2022-11-29T01:02:07.517Z,17.27
2022-11-29T01:04:36.386Z,16.93
2022-11-29T01:07:07.660Z,17.13
2022-11-29T01:09:42.228Z,18.13
2022-11-29T01:12:25.368Z,18.23
2022-11-29T01:14:56.954Z,18.33
2022-11-29T01:17:26.721Z,18.33
2022-11-29T01:19:56.660Z,17.40
2022-11-29T01:22:25.693Z,18.67
2022-11-29T01:24:54.423Z,17.77
2022-11-29T01:27:23.944Z,17.87
2022-11-29T01:29:52.977Z,18.00
2022-11-29T01:32:23.575Z,17.63
2022-11-29T01:34:52.901Z,17.83
2022-11-29T01:37:21.683Z,16.83
2022-11-29T01:39:50.964Z,17.53
2022-11-29T01:42:20.048Z,17.43
2022-11-29T01:45:09.871Z,17.67
2022-11-29T01:47:44.626Z,17.33
2022-11-29T01:50:14.895Z,17.80
2022-11-29T01:52:45.624Z,17.50
2022-11-29T01:55:14.541Z,17.40
2022-11-29T01:57:45.287Z,17.83
2022-11-29T02:00:16.970Z,17.37
2022-11-29T02:02:55.233Z,18.87
2022-11-29T02:05:24.636Z,17.47
2022-11-29T02:08:00.285Z,17.87
2022-11-29T02:10:46.725Z,16.60
2022-11-29T02:13:25.646Z,17.40
2022-11-29T02:16:03.590Z,17.20
2022-11-29T02:18:48.185Z,18.03
2022-11-29T02:21:29.294Z,17.37
2022-11-29T02:24:53.094Z,17.23
2022-11-29T02:28:14.393Z,18.07
2022-11-29T02:31:15.816Z,17.07
2022-11-29T02:37:38.946Z,17.27
2022-11-29T02:40:45.583Z,17.40
2022-11-29T02:43:47.570Z,18.07
2022-11-29T02:46:39.298Z,16.93
2022-11-29T02:49:19.918Z,17.47
2022-11-29T02:51:59.431Z,17.83
2022-11-29T02:54:35.345Z,17.97
2022-11-29T02:57:17.851Z,17.90
2022-11-29T02:59:58.023Z,17.63
2022-11-29T03:02:35.053Z,17.40
2022-11-29T03:05:21.054Z,17.43
2022-11-29T03:08:03.033Z,17.97
2022-11-29T03:10:38.498Z,18.40
2022-11-29T03:13:19.476Z,17.90
2022-11-29T03:15:59.469Z,17.77
2022-11-29T03:18:36.859Z,17.30
2022-11-29T03:21:22.282Z,17.40
2022-11-29T03:23:56.738Z,17.33
2022-11-29T03:26:34.244Z,17.23
2022-11-29T03:29:09.379Z,16.60
2022-11-29T03:31:42.766Z,16.87
2022-11-29T03:34:20.952Z,16.77
2022-11-29T03:37:03.050Z,16.40
2022-11-29T03:39:39.567Z,17.20
2022-11-29T03:42:13.360Z,17.07
2022-11-29T03:44:50.972Z,17.70
2022-11-29T03:47:28.546Z,18.20
2022-11-29T03:50:03.625Z,17.60
2022-11-29T03:52:40.332Z,16.77
2022-11-29T03:55:27.090Z,17.37
2022-11-29T03:58:16.071Z,17.17
2022-11-29T04:01:06.177Z,17.93
2022-11-29T04:03:59.109Z,18.17
2022-11-29T04:06:48.468Z,16.80
2022-11-29T04:09:54.457Z,18.00
2022-11-29T04:12:57.803Z,16.43
2022-11-29T04:16:07.911Z,18.03
2022-11-29T04:19:06.586Z,16.57
2022-11-29T04:21:49.103Z,16.27
2022-11-29T04:24:57.582Z,16.77
2022-11-29T04:27:50.452Z,16.13
2022-11-29T04:30:23.263Z,16.33
2022-11-29T04:33:36.448Z,16.23
2022-11-29T04:36:38.739Z,17.50
2022-11-29T04:39:33.820Z,16.90
2022-11-29T04:42:54.793Z,16.73
2022-11-29T04:46:10.053Z,16.63
2022-11-29T04:49:06.043Z,17.43
2022-11-29T04:51:51.874Z,17.00
2022-11-29T04:54:30.492Z,17.00
2022-11-29T04:57:08.207Z,16.40
2022-11-29T04:59:49.539Z,18.03
2022-11-29T05:02:36.453Z,17.30
2022-11-29T05:05:19.696Z,16.30
2022-11-29T05:08:03.732Z,17.07
2022-11-29T05:10:41.848Z,16.63
2022-11-29T05:13:23.490Z,16.93
2022-11-29T05:16:07.973Z,16.60
2022-11-29T05:18:58.447Z,17.90
2022-11-29T05:21:35.761Z,17.50
2022-11-29T05:24:19.273Z,16.20
2022-11-29T05:26:54.641Z,16.83
2022-11-29T05:29:29.851Z,17.23
2022-11-29T05:32:12.932Z,16.57
2022-11-29T05:34:56.268Z,17.03
2022-11-29T05:37:36.126Z,17.37
2022-11-29T05:40:24.953Z,16.67
2022-11-29T05:43:11.263Z,16.73
2022-11-29T05:45:48.119Z,16.43
2022-11-29T05:48:26.336Z,16.60
2022-11-29T05:51:06.341Z,17.00
2022-11-29T05:53:43.452Z,16.57
2022-11-29T05:56:18.070Z,18.00
2022-11-29T05:58:51.314Z,16.33
2022-11-29T06:01:24.502Z,16.23
2022-11-29T06:04:03.190Z,16.73
2022-11-29T06:06:40.219Z,17.23
2022-11-29T06:09:16.238Z,16.00
2022-11-29T06:11:49.498Z,16.07
2022-11-29T06:14:40.777Z,15.53
2022-11-29T06:17:39.286Z,15.87
2022-11-29T06:21:00.773Z,16.20
2022-11-29T06:24:04.771Z,16.27
2022-11-29T06:26:59.167Z,16.03
2022-11-29T06:29:41.774Z,15.93
2022-11-29T06:32:25.828Z,17.47
2022-11-29T06:35:05.988Z,15.93
2022-11-29T06:37:47.251Z,16.13
2022-11-29T06:40:20.105Z,16.83
2022-11-29T06:42:54.372Z,16.53
2022-11-29T06:45:24.112Z,16.10
2022-11-29T06:47:59.455Z,17.13
2022-11-29T06:50:38.565Z,16.53
2022-11-29T06:53:16.460Z,16.17
2022-11-29T06:55:54.151Z,16.73
2022-11-29T06:58:37.351Z,16.33
2022-11-29T07:01:17.997Z,15.97
2022-11-29T07:04:10.329Z,16.13
2022-11-29T07:06:39.671Z,15.90
2022-11-29T07:09:15.369Z,16.63
2022-11-29T07:11:45.475Z,16.60
2022-11-29T07:14:15.353Z,16.33
2022-11-29T07:16:57.312Z,17.43
2022-11-29T07:19:35.245Z,16.07
2022-11-29T07:22:27.167Z,16.77
2022-11-29T07:25:03.805Z,16.63
2022-11-29T07:27:43.275Z,16.67
2022-11-29T07:30:17.090Z,16.97
2022-11-29T07:33:12.034Z,16.53
2022-11-29T07:35:55.663Z,16.40
2022-11-29T07:38:38.196Z,15.63
2022-11-29T07:41:15.687Z,16.60
2022-11-29T07:43:51.878Z,19.07
2022-11-29T07:46:31.034Z,16.37
2022-11-29T07:49:00.808Z,16.97
2022-11-29T07:51:30.394Z,16.63
2022-11-29T07:54:02.057Z,18.00
2022-11-29T07:56:42.645Z,17.30
2022-11-29T07:59:13.203Z,18.80
2022-11-29T08:01:43.214Z,18.23
2022-11-29T08:04:12.444Z,16.97
2022-11-29T08:06:42.403Z,15.70
2022-11-29T08:09:11.792Z,17.17
2022-11-29T08:11:42.808Z,15.50
2022-11-29T08:14:13.155Z,16.07
2022-11-29T08:16:51.995Z,16.80
2022-11-29T08:19:21.201Z,15.87
2022-11-29T08:22:01.588Z,15.80
2022-11-29T08:24:33.606Z,15.47
2022-11-29T08:27:04.422Z,16.67
2022-11-29T08:29:33.189Z,15.03
2022-11-29T08:32:01.564Z,16.30
2022-11-29T08:34:30.693Z,16.30
2022-11-29T08:37:05.584Z,14.70
2022-11-29T08:39:35.386Z,15.60
2022-11-29T08:42:06.134Z,15.83
2022-11-29T08:44:36.176Z,15.20
2022-11-29T08:47:22.932Z,15.40
2022-11-29T08:50:04.392Z,14.43
2022-11-29T08:52:56.309Z,14.50
2022-11-29T08:55:32.479Z,14.90
2022-11-29T08:58:08.499Z,14.40
2022-11-29T09:00:39.040Z,15.83
2022-11-29T09:03:27.305Z,14.67
2022-11-29T09:05:57.965Z,14.70
2022-11-29T09:08:27.162Z,14.53
2022-11-29T09:10:55.030Z,15.80
2022-11-29T09:13:24.208Z,14.90
2022-11-29T09:15:52.164Z,16.10
2022-11-29T09:18:20.042Z,15.97
2022-11-29T09:20:47.967Z,16.60
2022-11-29T09:23:15.961Z,15.77
2022-11-29T09:25:49.146Z,15.20
2022-11-29T09:28:17.237Z,15.63
2022-11-29T09:30:46.488Z,16.53
2022-11-29T09:33:14.352Z,15.57
2022-11-29T09:35:42.476Z,15.67
2022-11-29T09:38:12.033Z,16.50
2022-11-29T09:40:43.535Z,15.90
2022-11-29T09:43:23.125Z,15.97
2022-11-29T09:46:03.860Z,16.73
2022-11-29T09:49:07.660Z,16.00
2022-11-29T09:51:44.206Z,16.77
2022-11-29T09:54:25.521Z,16.87
2022-11-29T09:56:55.677Z,17.37
2022-11-29T09:59:28.904Z,17.73
2022-11-29T10:02:04.775Z,16.93
2022-11-29T10:04:40.100Z,16.37
2022-11-29T10:07:15.718Z,16.60
2022-11-29T10:09:49.316Z,16.17
2022-11-29T10:12:22.101Z,17.80
2022-11-29T10:14:56.445Z,17.10
2022-11-29T10:17:34.230Z,17.10
2022-11-29T10:20:07.019Z,17.13
2022-11-29T10:22:43.596Z,16.67
2022-11-29T10:25:21.227Z,16.60
2022-11-29T10:27:49.242Z,18.20
2022-11-29T10:30:18.077Z,17.40
2022-11-29T10:32:51.774Z,18.53
2022-11-29T10:35:21.293Z,17.37
2022-11-29T10:38:22.304Z,17.93
2022-11-29T10:40:41.491Z,17.80
2022-11-29T10:43:44.640Z,18.40
2022-11-29T10:46:18.758Z,18.67
2022-11-29T10:48:48.129Z,19.40
2022-11-29T10:51:18.056Z,20.00
2022-11-29T10:53:46.815Z,19.07
2022-11-29T10:56:24.126Z,20.33
2022-11-29T10:58:58.621Z,19.90
2022-11-29T11:01:29.067Z,19.90
2022-11-29T11:04:01.165Z,19.93
2022-11-29T11:06:47.156Z,19.60
2022-11-29T11:09:21.809Z,22.33
2022-11-29T11:11:54.718Z,22.80
2022-11-29T11:14:25.215Z,22.80
2022-11-29T11:16:54.021Z,20.83
2022-11-29T11:19:28.393Z,19.97
2022-11-29T11:21:56.942Z,19.97
2022-11-29T11:24:27.959Z,19.73
2022-11-29T11:26:56.009Z,21.60
2022-11-29T11:29:26.829Z,20.60
2022-11-29T11:31:57.567Z,20.07
2022-11-29T11:34:31.553Z,19.30
2022-11-29T11:37:19.512Z,19.67
2022-11-29T11:39:49.229Z,20.20
2022-11-29T11:42:38.905Z,20.30
2022-11-29T11:45:27.318Z,20.67
2022-11-29T11:47:57.480Z,19.40
2022-11-29T11:50:33.795Z,21.63
2022-11-29T11:53:06.694Z,19.33
2022-11-29T11:55:40.224Z,22.07
2022-11-29T11:58:17.879Z,23.27
2022-11-29T12:01:03.955Z,23.27
2022-11-29T12:03:40.700Z,24.23
2022-11-29T12:06:29.744Z,22.53
2022-11-29T12:09:04.058Z,24.73
2022-11-29T12:11:38.476Z,25.13
2022-11-29T12:14:08.264Z,24.00
2022-11-29T12:16:40.292Z,23.07
2022-11-29T12:19:16.658Z,21.90
2022-11-29T12:21:52.514Z,23.17
2022-11-29T12:24:26.273Z,29.50
2022-11-29T12:26:58.609Z,26.67
2022-11-29T12:29:30.297Z,26.70
2022-11-29T12:32:13.654Z,26.33
2022-11-29T12:34:53.321Z,25.43
2022-11-29T12:37:27.983Z,24.43
2022-11-29T12:39:58.670Z,21.03
2022-11-29T12:42:47.603Z,22.63
2022-11-29T12:45:35.621Z,22.47
2022-11-29T12:48:16.358Z,22.37
2022-11-29T12:50:54.090Z,22.03
2022-11-29T12:53:46.854Z,21.60
2022-11-29T12:56:21.485Z,22.17
2022-11-29T12:59:01.951Z,21.23
2022-11-29T13:01:38.865Z,21.77
2022-11-29T13:04:17.148Z,21.70
2022-11-29T13:06:52.842Z,21.77
2022-11-29T13:09:57.050Z,22.03
2022-11-29T13:12:34.914Z,21.63
2022-11-29T13:15:07.671Z,22.97
2022-11-29T13:17:42.731Z,20.43
2022-11-29T13:20:25.410Z,20.63
2022-11-29T13:22:58.582Z,19.83
2022-11-29T13:25:34.730Z,19.23
2022-11-29T13:28:06.774Z,19.60
2022-11-29T13:30:36.144Z,19.43
2022-11-29T13:33:14.242Z,19.10
2022-11-29T13:35:47.546Z,19.20
2022-11-29T13:38:22.794Z,18.60
2022-11-29T13:40:59.878Z,18.97
2022-11-29T13:43:35.663Z,19.27
2022-11-29T13:46:17.474Z,18.20
2022-11-29T13:48:50.766Z,18.73
2022-11-29T13:51:25.540Z,18.70
2022-11-29T13:53:55.160Z,20.80
2022-11-29T13:56:32.731Z,20.43
2022-11-29T13:59:02.148Z,18.77
2022-11-29T14:01:30.311Z,18.43
2022-11-29T14:04:14.681Z,18.77
2022-11-29T14:06:42.815Z,19.27
2022-11-29T14:09:27.241Z,17.47
2022-11-29T14:12:04.121Z,17.93
2022-11-29T14:14:40.586Z,16.67
2022-11-29T14:17:35.054Z,18.13
2022-11-29T14:20:52.041Z,19.07
2022-11-29T14:23:40.518Z,17.33
2022-11-29T14:26:31.151Z,17.87
2022-11-29T14:29:00.724Z,17.00
2022-11-29T14:31:48.872Z,21.13
2022-11-29T14:34:27.769Z,22.23
2022-11-29T14:37:05.964Z,22.27
2022-11-29T14:39:43.803Z,19.03
2022-11-29T14:42:17.052Z,17.63
2022-11-29T14:44:50.881Z,16.70
2022-11-29T14:47:29.812Z,17.13
2022-11-29T14:50:00.709Z,16.47
2022-11-29T14:52:34.577Z,16.00
2022-11-29T14:55:06.595Z,15.97
2022-11-29T14:58:14.624Z,17.93
2022-11-29T15:01:10.723Z,17.33
2022-11-29T15:03:50.633Z,17.80
2022-11-29T15:06:26.999Z,17.90
2022-11-29T15:09:05.582Z,17.73
2022-11-29T15:11:50.911Z,17.70
2022-11-29T15:14:27.977Z,18.17
2022-11-29T15:17:09.009Z,19.43
2022-11-29T15:20:07.366Z,19.23
2022-11-29T15:22:48.063Z,19.43
2022-11-29T15:25:19.643Z,19.70
2022-11-29T15:27:52.889Z,20.90
2022-11-29T15:30:28.406Z,19.63
2022-11-29T15:32:59.395Z,19.73
2022-11-29T15:35:28.125Z,20.47
2022-11-29T15:37:57.102Z,20.23
2022-11-29T15:40:31.346Z,20.63
2022-11-29T15:43:12.590Z,20.13
2022-11-29T15:45:41.185Z,20.40
2022-11-29T15:48:18.694Z,21.73
2022-11-29T15:50:55.286Z,20.93
2022-11-29T15:53:28.822Z,21.27
2022-11-29T15:55:59.568Z,20.77
2022-11-29T15:58:30.547Z,21.70
2022-11-29T16:01:01.219Z,20.37
2022-11-29T16:03:34.532Z,20.97
2022-11-29T16:06:10.151Z,19.47
2022-11-29T16:08:43.012Z,22.90
2022-11-29T16:11:22.096Z,21.97
2022-11-29T16:14:23.192Z,22.07
2022-11-29T16:16:53.876Z,17.60
2022-11-29T16:19:35.532Z,18.00
2022-11-29T16:22:14.811Z,16.43
2022-11-29T16:24:53.017Z,15.97
2022-11-29T16:27:23.512Z,16.63
2022-11-29T16:29:55.167Z,17.20
2022-11-29T16:32:29.509Z,16.97
2022-11-29T16:35:15.425Z,16.97
2022-11-29T16:37:47.230Z,17.40
2022-11-29T16:40:24.857Z,18.13
2022-11-29T16:43:39.450Z,20.17
2022-11-29T16:46:33.272Z,19.23
2022-11-29T16:49:35.661Z,19.17
2022-11-29T16:52:25.972Z,17.10
2022-11-29T16:54:55.381Z,16.80
2022-11-29T16:57:39.150Z,14.67
2022-11-29T17:00:29.269Z,16.03
2022-11-29T17:02:58.334Z,16.30
2022-11-29T17:05:31.723Z,15.70
2022-11-29T17:08:05.567Z,16.23
2022-11-29T17:10:36.623Z,15.67
2022-11-29T17:13:10.048Z,15.80
2022-11-29T17:15:38.015Z,15.40
2022-11-29T17:18:06.051Z,16.17
2022-11-29T17:20:34.440Z,16.23
2022-11-29T17:23:03.975Z,17.40
2022-11-29T17:25:32.013Z,16.97
2022-11-29T17:27:59.981Z,17.07
2022-11-29T17:30:31.839Z,16.90
2022-11-29T17:32:59.840Z,17.03
2022-11-29T17:35:27.798Z,17.03
2022-11-29T17:37:55.947Z,16.57
2022-11-29T17:40:28.225Z,16.13
2022-11-29T17:42:56.781Z,18.33
2022-11-29T17:45:25.288Z,18.47
2022-11-29T17:47:55.601Z,18.20
2022-11-29T17:50:24.111Z,18.40
2022-11-29T17:52:52.860Z,22.83
2022-11-29T17:55:24.668Z,27.17
2022-11-29T17:57:57.087Z,31.53
2022-11-29T18:00:28.496Z,31.97
2022-11-29T18:02:57.089Z,33.10
2022-11-29T18:05:27.879Z,29.60
2022-11-29T18:08:01.853Z,29.27
2022-11-29T18:10:30.713Z,30.57
2022-11-29T18:13:00.459Z,29.30
2022-11-29T18:15:28.875Z,24.47
2022-11-29T18:17:57.496Z,26.33
2022-11-29T18:20:25.639Z,25.53
2022-11-29T18:22:55.065Z,23.63
2022-11-29T18:25:39.803Z,21.10
2022-11-29T18:28:11.304Z,22.10
2022-11-29T18:30:39.537Z,20.47
2022-11-29T18:33:07.671Z,22.57
2022-11-29T18:35:35.916Z,23.20
2022-11-29T18:38:15.114Z,22.97
2022-11-29T18:40:45.538Z,21.37
2022-11-29T18:43:16.868Z,21.83
2022-11-29T18:45:46.170Z,21.20
2022-11-29T18:48:14.115Z,21.20
2022-11-29T18:50:42.398Z,20.00
2022-11-29T18:53:10.312Z,20.47
2022-11-29T18:55:38.159Z,19.97
2022-11-29T18:58:07.839Z,20.80
2022-11-29T19:00:37.153Z,20.87
2022-11-29T19:03:05.105Z,20.10
2022-11-29T19:05:37.372Z,18.57
2022-11-29T19:08:06.053Z,18.57
2022-11-29T19:10:34.698Z,17.93
2022-11-29T19:13:03.924Z,18.03
2022-11-29T19:15:34.082Z,15.73
2022-11-29T19:18:04.373Z,16.80
2022-11-29T19:20:34.350Z,17.33
2022-11-29T19:23:29.982Z,18.13
2022-11-29T19:26:06.331Z,18.43
2022-11-29T19:28:50.051Z,16.73
2022-11-29T19:31:26.382Z,18.03
2022-11-29T19:33:57.796Z,17.63
2022-11-29T19:36:27.915Z,17.00
2022-11-29T19:38:57.973Z,17.77
2022-11-29T19:41:27.593Z,15.63
2022-11-29T19:43:57.236Z,16.73
2022-11-29T19:46:27.499Z,17.27
2022-11-29T19:48:58.011Z,17.50
2022-11-29T19:51:27.288Z,18.03
2022-11-29T19:53:56.072Z,17.13
2022-11-29T19:56:24.655Z,18.13
2022-11-29T19:58:53.062Z,17.00
2022-11-29T20:01:24.503Z,17.67
2022-11-29T20:03:53.402Z,18.40
2022-11-29T20:06:22.708Z,17.63
2022-11-29T20:08:50.846Z,17.87
2022-11-29T20:11:20.902Z,18.90
2022-11-29T20:13:55.164Z,17.33
2022-11-29T20:16:24.060Z,17.17
2022-11-29T20:18:54.294Z,17.63
2022-11-29T20:21:26.269Z,17.17
2022-11-29T20:23:56.636Z,17.90
2022-11-29T20:26:25.650Z,16.60
2022-11-29T20:28:54.995Z,16.63
2022-11-29T20:31:25.206Z,16.90
2022-11-29T20:33:57.748Z,16.00
2022-11-29T20:36:43.490Z,16.33
2022-11-29T20:39:25.427Z,17.90
2022-11-29T20:42:11.797Z,16.17
2022-11-29T20:44:47.122Z,17.03
2022-11-29T20:47:19.859Z,16.17
2022-11-29T20:49:49.789Z,17.40
2022-11-29T20:52:39.440Z,16.30
2022-11-29T20:55:12.129Z,16.73
2022-11-29T20:57:41.312Z,18.03
2022-11-29T21:00:18.149Z,16.90
2022-11-29T21:02:46.309Z,16.97
2022-11-29T21:05:16.164Z,17.70
2022-11-29T21:07:46.737Z,17.73
2022-11-29T21:10:15.734Z,18.00
2022-11-29T21:12:45.757Z,18.57
2022-11-29T21:15:15.221Z,17.30
2022-11-29T21:17:44.096Z,17.73
2022-11-29T21:20:19.117Z,17.30
2022-11-29T21:22:55.193Z,18.10
2022-11-29T21:25:31.681Z,17.53
2022-11-29T21:28:01.519Z,17.50
2022-11-29T21:30:29.727Z,17.50
2022-11-29T21:32:58.081Z,17.90
2022-11-29T21:35:26.199Z,18.37
2022-11-29T21:38:00.177Z,17.30
2022-11-29T21:40:28.500Z,17.70
2022-11-29T21:42:56.919Z,17.50
2022-11-29T21:45:24.803Z,17.77
2022-11-29T21:47:52.643Z,18.93
2022-11-29T21:50:20.445Z,19.27
2022-11-29T21:52:51.707Z,19.27
2022-11-29T21:55:20.894Z,21.90
2022-11-29T21:57:48.749Z,23.13
2022-11-29T22:00:17.450Z,20.73
2022-11-29T22:02:45.395Z,21.83
2022-11-29T22:05:13.405Z,21.50
2022-11-29T22:07:41.271Z,18.90
2022-11-29T22:10:13.341Z,18.57
2022-11-29T22:12:51.615Z,18.60
2022-11-29T22:15:24.433Z,18.37
2022-11-29T22:17:52.918Z,19.10
2022-11-29T22:20:21.139Z,18.53
2022-11-29T22:22:49.392Z,18.67
2022-11-29T22:25:17.525Z,19.87
2022-11-29T22:27:46.743Z,19.10
2022-11-29T22:30:14.871Z,19.90
2022-11-29T22:32:42.762Z,14.60
2022-11-29T22:35:10.724Z,12.70
2022-11-29T22:37:38.532Z,13.30
2022-11-29T22:40:08.014Z,13.83
2022-11-29T22:42:35.846Z,11.73
2022-11-29T22:45:05.615Z,12.63
2022-11-29T22:47:33.490Z,12.07
2022-11-29T22:50:01.352Z,11.87
2022-11-29T22:52:29.245Z,11.57
2022-11-29T22:55:02.860Z,12.40
2022-11-29T22:57:32.702Z,15.00
2022-11-29T23:00:00.724Z,15.43
2022-11-29T23:02:30.270Z,15.20
2022-11-29T23:04:58.232Z,15.60
2022-11-29T23:07:26.225Z,16.00
2022-11-29T23:09:55.828Z,14.83
2022-11-29T23:12:24.116Z,15.70
2022-11-29T23:14:56.398Z,15.20
2022-11-29T23:17:25.085Z,15.77
2022-11-29T23:19:54.406Z,16.77
2022-11-29T23:22:22.344Z,15.37
2022-11-29T23:24:50.268Z,15.47
2022-11-29T23:27:18.123Z,13.37
2022-11-29T23:29:45.941Z,13.80
2022-11-29T23:32:13.914Z,13.73
2022-11-29T23:34:41.837Z,14.27
2022-11-29T23:37:11.133Z,14.37
2022-11-29T23:39:39.216Z,13.10
2022-11-29T23:42:07.217Z,13.90
2022-11-29T23:44:35.163Z,14.17
2022-11-29T23:47:03.051Z,14.30
2022-11-29T23:49:30.978Z,14.10
2022-11-29T23:51:58.883Z,14.03
2022-11-29T23:54:28.322Z,14.60
2022-11-29T23:56:56.262Z,13.77
2022-11-29T23:59:24.135Z,14.87
